logo
App data

Nexus - The Jupiter Incident

At the dawn of the 22nd century, the conquest of space and the colonization of the solar system is being monopolized by several huge and ambitious mega-corporations. Although extremely delicate and vulnerable, a balance is maintained by these companies.
Store | Hub | SteamDB
Developer: Mithis Games, THQ Nordic Publisher: HandyGames
Genre: Indie, Simulation, Strategy
Languages: English, French, Italian, German, Russian, Hungarian
Tags: Strategy (59), Space (42), Sci-fi (40), Simulation (36), RTS (28), Singleplayer (25), Indie (23), Atmospheric (19), Tactical (18), Multiplayer (16), Classic (15), Real Time Tactics (12), Moddable (12), Cult Classic (10)
Category: Single-player, Multi-player, Includes level editor
Release date: Nov 5, 2004
Price: $2.49 75%
Old userscore: 84% Metascore: 77%
Owners: 50,000 .. 100,000
Followers: 6,587
Peak concurrent players yesterday: 28

Steam Spy is still in beta, so expect major bugs.

Owners data:

Access restricted.

This feature is only available to users with special access rights. Sorry.

If you want to proceed, you need to register or log in first and then back Steam Spy on Patreon. Look for Indie or Pro pledge.

Don't forget to use the same email as on Steam Spy!

Audience in 2 weeks:

Access restricted.

This feature is only available to users with special access rights. Sorry.

If you want to proceed, you need to register or log in first and then back Steam Spy on Patreon. Look for Indie or Pro pledge.

Don't forget to use the same email as on Steam Spy!

Peak daily concurrent players:

CCU data courtesy of SteamDB. Used with permission.

Hourly concurrent players:

Daily Twitch stats:

Hourly Twitch stats:

YouTube:

The views data is based on top 50 videos uploaded last week. Actual number of views might be more than the number shown.

The displayed number of videos uploaded yesterday is limited to 50, so if there were more videos uploaded, the number will still show 50.

If the game has commonly used word as its name (like "FEAR" or "Volume") its number of Youtube views might be wrong.

Games similar to this one:

# Game Release date
Price
Score rank
(Userscore / Metascore)
Owners
Players
Playtime (Median)
1 STAR WARS: The Force Unleashed II Oct 26, 2010 $19.99N/A (N/A/59%)1,000,000 .. 2,000,0000%00:00 (00:00)
2 Slash or Die Jun 3, 2016 $2.99N/A (N/A)20,000 .. 50,0000%00:00 (00:00)
3 E.T. Armies Mar 3, 2016 $14.99N/A (N/A/54%)20,000 .. 50,0000%00:00 (00:00)
4 Bloodsports.TV Mar 30, 2015 $9.99N/A (N/A/69%)100,000 .. 200,0000%00:00 (00:00)
5 Commando Jack Aug 22, 2014 $7.99N/A (N/A)200,000 .. 500,0000%00:00 (00:00)
6 Epigenesis Aug 1, 2014 FreeN/A (N/A)200,000 .. 500,0000%00:00 (00:00)
7 Memoir '44 Online Oct 12, 2011 FreeN/A (N/A)200,000 .. 500,0000%00:00 (00:00)
8 Prince of Persia: The Sands of Time Dec 2, 2003 $9.99N/A (N/A/89%)200,000 .. 500,0000%00:00 (00:00)
9 Rento Fortune - Online Dice Board Game Jul 14, 2017 $4.99N/A (N/A)50,000 .. 100,00028.57%00:30 (00:19)
10 12 is Better Than 6 Nov 20, 2015 $9.99N/A (N/A/74%)500,000 .. 1,000,0000%00:00 (00:00)
11 Zombie Zoeds May 20, 2015 $0.99N/A (N/A)200,000 .. 500,0000%00:00 (00:00)
12 Platypus II Mar 17, 2007 $6.99N/A (N/A)200,000 .. 500,0000%00:00 (00:00)
13 Bedlam Oct 13, 2015 $12.99N/A (N/A/54%)100,000 .. 200,0000%00:00 (00:00)
14 Rise of Venice Sep 27, 2013 $19.99N/A (N/A/66%)50,000 .. 100,0000%00:00 (00:00)
15 Disciples III - Renaissance Steam Special Edition Jul 16, 2010 $14.99N/A (N/A/56%)100,000 .. 200,0000%00:00 (00:00)
16 DEFCON Sep 29, 2006 $9.99N/A (N/A/84%)500,000 .. 1,000,0000%00:00 (00:00)
17 Mad Combat Marines Jul 13, 2016 $0.99N/A (N/A)20,000 .. 50,0000%00:00 (00:00)
18 Azure Striker Gunvolt Aug 28, 2015 $14.99N/A (N/A)20,000 .. 50,0000%00:00 (00:00)
19 Zombie Kill of the Week - Reborn Mar 13, 2015 $6.99N/A (N/A)50,000 .. 100,0000%00:00 (00:00)
20 GALAK-Z Oct 29, 2015 $19.99N/A (N/A/78%)200,000 .. 500,0000%00:00 (00:00)
21 ENSLAVED: Odyssey to the West Premium Edition Oct 24, 2013 $19.99N/A (N/A/70%)200,000 .. 500,0000%00:00 (00:00)
22 Galactic Civilizations II: Ultimate Edition Dec 2, 2011 $19.99N/A (N/A/92%)500,000 .. 1,000,0000%00:00 (00:00)
23 Oddworld: Abe's Oddysee Dec 12, 1997 $2.99N/A (N/A)2,000,000 .. 5,000,0000%00:00 (00:00)
24 Starward Rogue Jan 22, 2016 $11.99N/A (N/A)50,000 .. 100,0000%00:00 (00:00)
25 Slain: Back from Hell Mar 24, 2016 $3.89N/A (N/A/74%)100,000 .. 200,0000%00:00 (00:00)
26 Trine 3: The Artifacts of Power Aug 20, 2015 $21.99N/A (N/A)500,000 .. 1,000,0000%00:00 (00:00)
27 Guns n Zombies Oct 30, 2014 $0.79N/A (N/A)100,000 .. 200,0000%00:00 (00:00)
28 Scourge: Outbreak Apr 2, 2014 $7.99N/A (N/A)100,000 .. 200,0000%00:00 (00:00)
29 AI War: Fleet Command Oct 21, 2009 $9.99N/A (N/A/80%)200,000 .. 500,0000%00:00 (00:00)
30 Evil Genius Sep 28, 2004 $9.99N/A (N/A/75%)200,000 .. 500,0000%00:00 (00:00)
31 Radical Spectrum: Volume 1 Jul 8, 2016 $0.99N/A (N/A)50,000 .. 100,0000%00:00 (00:00)
32 Bleed 2 Feb 8, 2017 $9.99N/A (N/A/83%)20,000 .. 50,0000%00:00 (00:00)
33 Particula Feb 2, 2015 $0.99N/A (N/A)500,000 .. 1,000,0000%00:00 (00:00)
34 Battle Islands Aug 6, 2014 FreeN/A (N/A)500,000 .. 1,000,0000%00:00 (00:00)
35 Megabyte Punch Oct 15, 2013 $14.99N/A (N/A/69%)200,000 .. 500,0000%00:00 (00:00)
36 Retro City Rampage DX Nov 11, 2014 $14.99N/A (N/A)200,000 .. 500,0000%00:00 (00:00)
37 Oddworld: Abe's Exoddus Nov 17, 1998 $2.99N/A (N/A)200,000 .. 500,0000%00:00 (00:00)
38 Deadlight: Director's Cut Jun 21, 2016 $11.99N/A (N/A)100,000 .. 200,0000%00:00 (00:00)
39 Letter Quest: Grimm's Journey Remastered Aug 5, 2015 $2.39N/A (N/A)50,000 .. 100,0000%00:00 (00:00)
40 UNLOVED Sep 29, 2016 $9.99N/A (N/A)50,000 .. 100,00033.33%00:35 (00:11)
41 Deadly 30 Jan 8, 2014 $4.99N/A (N/A)100,000 .. 200,0000%00:00 (00:00)
42 Ace Combat Assault Horizon - Enhanced Edition Jan 25, 2013 N/AN/A (N/A/77%)200,000 .. 500,0000%00:00 (00:00)
43 Stronghold 2: Steam Edition $14.99N/A (N/A)0 .. 20,0000%00:00 (00:00)
44 Cossacks: Back to War Nov 1, 2002 $4.99N/A (N/A/60%)200,000 .. 500,0000%00:00 (00:00)
45 RiME May 26, 2017 $29.99N/A (N/A/78%)200,000 .. 500,00020%02:49 (01:24)
46 Little Big Adventure 2 Oct 20, 2015 $3.99N/A (N/A)20,000 .. 50,0000%00:00 (00:00)
47 CRYPTARK Jun 20, 2017 $14.99N/A (N/A/80%)50,000 .. 100,0000%00:00 (00:00)
48 Ultimate General: Gettysburg Oct 16, 2014 $14.99N/A (N/A/84%)200,000 .. 500,0000%00:00 (00:00)
49 Marlow Briggs and the Mask of Death Sep 20, 2013 $4.99N/A (N/A)100,000 .. 200,0000%00:00 (00:00)
50 Apotheon Feb 3, 2015 $14.99N/A (N/A/78%)200,000 .. 500,0000%00:00 (00:00)
51 Oddworld: Munch's Oddysee Dec 20, 2010 $4.99N/A (N/A)200,000 .. 500,0000%00:00 (00:00)
52 Phoning Home Feb 7, 2017 $2.99N/A (N/A/61%)20,000 .. 50,0000%00:00 (00:00)
53 Air Brawl Jun 2, 2015 FreeN/A (N/A)100,000 .. 200,0000%00:00 (00:00)
54 Tharsis Jan 11, 2016 $14.99N/A (N/A/61%)200,000 .. 500,0000%00:00 (00:00)
55 Gun Metal Sep 23, 2003 $2.99N/A (N/A)200,000 .. 500,0000%00:00 (00:00)
56 Leisure Suit Larry in the Land of the Lounge Lizards: Reloaded Jun 27, 2013 N/AN/A (N/A)50,000 .. 100,0000%00:00 (00:00)
57 Gratuitous Space Battles Nov 16, 2009 $14.99N/A (N/A/72%)500,000 .. 1,000,0000%00:00 (00:00)
58 Shank Oct 25, 2010 $9.99N/A (N/A/67%)200,000 .. 500,0000%00:00 (00:00)
59 Sorcerer King: Rivals Sep 22, 2016 $19.99N/A (N/A)20,000 .. 50,0000%00:00 (00:00)
60 War of Beach Oct 15, 2015 FreeN/A (N/A)100,000 .. 200,0000%00:00 (00:00)
61 Sun Blast: Star Fighter Apr 2, 2015 $1.99N/A (N/A)100,000 .. 200,0000%00:00 (00:00)
62 Platypus Jun 2, 2004 $6.99N/A (N/A)50,000 .. 100,0000%00:00 (00:00)
63 Kingdom Wars 2: Battles Mar 4, 2016 $9.99N/A (N/A)50,000 .. 100,0000%00:00 (00:00)
64 Call of Duty: Black Ops - Mac Edition Sep 27, 2012 $19.99N/A (N/A)50,000 .. 100,0000%00:00 (00:00)
65 Oddworld: Stranger's Wrath HD Dec 20, 2010 $9.99N/A (N/A)200,000 .. 500,0000%00:00 (00:00)
66 IS Defense Apr 19, 2016 $5.99N/A (N/A/50%)20,000 .. 50,0000%00:00 (00:00)
67 Anno 2205 Nov 3, 2015 $39.99N/A (N/A/72%)200,000 .. 500,00016.67%00:03 (00:01)
68 Halo: Spartan Strike Dec 12, 2014 $2.99N/A (N/A)100,000 .. 200,0000%00:00 (00:00)
69 Offworld Trading Company - Free Multiplayer Apr 28, 2016 FreeN/A (N/A/78%)500,000 .. 1,000,0000%00:00 (00:00)
70 Eador. Masters of the Broken World Apr 19, 2013 $3.99N/A (N/A/74%)1,000,000 .. 2,000,0000%00:00 (00:00)
71 Command & Conquer 4: Tiberian Twilight Mar 16, 2010 $19.99N/A (N/A/64%)200,000 .. 500,0000%00:00 (00:00)
72 Lost Planet: Extreme Condition Jun 26, 2007 $14.99N/A (N/A/66%)200,000 .. 500,0000%00:00 (00:00)
73 Carmageddon: Max Damage Oct 27, 2016 $16.99N/A (N/A)200,000 .. 500,0000%00:00 (00:00)
74 Prospekt Feb 18, 2016 $9.99N/A (N/A/43%)20,000 .. 50,0000%00:00 (00:00)
75 Agent Awesome Feb 17, 2015 $0.99N/A (N/A)200,000 .. 500,0000%00:00 (00:00)
76 Grand Ages: Medieval Sep 25, 2015 $19.99N/A (N/A/63%)50,000 .. 100,0000%00:00 (00:00)
77 WARMACHINE: Tactics Nov 20, 2014 $19.99N/A (N/A)100,000 .. 200,0000%00:00 (00:00)
78 Legacy of Kain: Defiance Dec 17, 2003 $6.99N/A (N/A/70%)200,000 .. 500,0000%00:00 (00:00)
79 Nuclear Dawn Sep 26, 2011 $9.99N/A (N/A/71%)200,000 .. 500,0000%00:00 (00:00)
80 Planar Conquest May 30, 2016 $19.99N/A (N/A/53%)20,000 .. 50,0000%00:00 (00:00)
81 The Surge May 15, 2017 $29.99N/A (N/A/72%)200,000 .. 500,0000%00:00 (00:00)
82 WASTED Jun 7, 2016 $12.99N/A (N/A/68%)100,000 .. 200,0000%00:00 (00:00)
83 Castlevania: Lords of Shadow – Mirror of Fate HD Mar 27, 2014 $14.99N/A (N/A)100,000 .. 200,0000%00:00 (00:00)
84 Final Exam Nov 5, 2013 $9.99N/A (N/A/66%)100,000 .. 200,0000%00:00 (00:00)
85 Jagged Alliance - Back in Action Feb 8, 2012 $19.99N/A (N/A/62%)200,000 .. 500,0000%00:00 (00:00)
86 X-COM: Terror From the Deep Apr 1, 1995 $4.99N/A (N/A)500,000 .. 1,000,0000%00:00 (00:00)
87 The Disney Afternoon Collection Apr 18, 2017 $19.99N/A (N/A)20,000 .. 50,0000%00:00 (00:00)
88 The Political Machine 2016 Feb 4, 2016 $9.99N/A (N/A)50,000 .. 100,0000%00:00 (00:00)
89 The Silent Age May 29, 2015 $0.99N/A (N/A)200,000 .. 500,0000%00:00 (00:00)
90 Super Trench Attack! Jul 24, 2014 $0.99N/A (N/A)50,000 .. 100,0000%00:00 (00:00)
91 PixelJunk Shooter Nov 11, 2013 $8.99N/A (N/A/73%)100,000 .. 200,0000%00:00 (00:00)
92 Tomb Raider IV: The Last Revelation Nov 28, 2012 $6.99N/A (N/A)500,000 .. 1,000,0000%00:00 (00:00)
93 Brothers in Arms: Earned in Blood Oct 4, 2005 $9.99N/A (N/A/84%)100,000 .. 200,0000%00:00 (00:00)
94 The Big Elk May 24, 2016 $0.51N/A (N/A)50,000 .. 100,0000%00:00 (00:00)
95 Tap Tap Infinity Jun 26, 2015 FreeN/A (N/A)200,000 .. 500,0000%00:00 (00:00)
96 Sonic Lost World Nov 2, 2015 $29.99N/A (N/A)100,000 .. 200,0000%00:00 (00:00)
97 The Fall May 30, 2014 $9.99N/A (N/A/76%)200,000 .. 500,0000%00:00 (00:00)
98 Original War Jun 15, 2001 $4.99N/A (N/A/61%)100,000 .. 200,0000%00:00 (00:00)
99 Blood Bowl - Legendary Edition Oct 28, 2010 $9.99N/A (N/A/73%)200,000 .. 500,0000%00:00 (00:00)
100 Kane and Lynch: Dead Men Nov 13, 2007 $6.99N/A (N/A/67%)200,000 .. 500,0000%00:00 (00:00)
101 Castle Werewolf 3D Feb 7, 2017 $0.51N/A (N/A)50,000 .. 100,0000%00:00 (00:00)
102 Charlie Murder May 12, 2017 $9.99N/A (N/A)20,000 .. 50,0000%00:00 (00:00)
103 Curious Expedition Sep 2, 2016 $14.99N/A (N/A)100,000 .. 200,0000%00:00 (00:00)
104 Ys VI: The Ark of Napishtim Apr 28, 2015 $19.99N/A (N/A/76%)50,000 .. 100,0000%00:00 (00:00)
105 Rebuild 3: Gangs of Deadsville May 29, 2015 $14.99N/A (N/A/75%)100,000 .. 200,0000%00:00 (00:00)
106 Tomb Raider II Nov 28, 2012 $6.99N/A (N/A)500,000 .. 1,000,0000%00:00 (00:00)
107 Hunted: The Demon’s Forge May 30, 2011 $4.99N/A (N/A/61%)100,000 .. 200,0000%00:00 (00:00)
108 Strike Vector EX Jul 19, 2017 $11.99N/A (N/A)50,000 .. 100,0000%00:00 (00:00)
109 80 Days Sep 28, 2015 $12.99N/A (N/A/84%)100,000 .. 200,0000%00:00 (00:00)
110 Executive Assault Jul 17, 2015 $12.99N/A (N/A)50,000 .. 100,0000%00:00 (00:00)
111 Orbital Gear Aug 7, 2014 $9.99N/A (N/A/59%)200,000 .. 500,0000%00:00 (00:00)
112 Anomaly 2 May 15, 2013 $14.99N/A (N/A/77%)200,000 .. 500,0000%00:00 (00:00)
113 Section 8: Prejudice May 4, 2011 $9.99N/A (N/A/77%)200,000 .. 500,0000%00:00 (00:00)
114 America's Army 3 Jun 17, 2009 N/AN/A (N/A/70%)500,000 .. 1,000,0000%00:00 (00:00)
115 Immortal Redneck Apr 25, 2017 $19.95N/A (N/A/70%)100,000 .. 200,0000%00:00 (00:00)
116 Crush Your Enemies Jul 13, 2016 $9.99N/A (N/A/63%)20,000 .. 50,0000%00:00 (00:00)
117 TASTEE: Lethal Tactics May 10, 2016 $14.99N/A (N/A)20,000 .. 50,0000%00:00 (00:00)
118 The Original Strife: Veteran Edition May 31, 1996 $9.99N/A (N/A)50,000 .. 100,0000%00:00 (00:00)
119 The Last Tinker: City of Colors May 12, 2014 $9.99N/A (N/A/72%)50,000 .. 100,0000%00:00 (00:00)
120 Age of Wonders III Mar 31, 2014 $29.99N/A (N/A/80%)500,000 .. 1,000,0000%00:00 (00:00)

Tags over time:

Access restricted.

This feature is only available to users with special access rights. Sorry.

If you want to proceed, you need to register or log in first and then back Steam Spy on Patreon. Look for Indie or Pro pledge.

Don't forget to use the same email as on Steam Spy!

Owners of this game also own:

Access restricted.

This feature is only available to users with special access rights. Sorry.

If you want to proceed, you need to register or log in first and then back Steam Spy on Patreon. Look for Indie or Pro pledge.

Don't forget to use the same email as on Steam Spy!

Playtime distribution:

Access restricted.

This feature is only available to users with special access rights. Sorry.

If you want to proceed, you need to register or log in first and then back Steam Spy on Patreon. Look for Indie or Pro pledge.

Don't forget to use the same email as on Steam Spy!

Playtime (2 weeks):

Access restricted.

This feature is only available to users with special access rights. Sorry.

If you want to proceed, you need to register or log in first and then back Steam Spy on Patreon. Look for Indie or Pro pledge.

Don't forget to use the same email as on Steam Spy!

User reviews:

Login required.

Please register or log in to see this information.